Terminal Aerodrome Forecast
Issued by NWS

Home | Current Version | Previous Version | Text Only | Print | Product List | Glossary On
Versions: 1 2 3 4 5 6 7 8 9 10 11 12 13 14 15 16
717
FTUS45 KABQ 221735
TAFTCC
TAF
KTCC 221735Z 2218/2318 26018G27KT P6SM SCT250
     FM222000 25025G35KT P6SM BKN250
     FM230130 26009KT P6SM BKN250
     FM231000 23009KT P6SM SCT150 BKN200
     FM231600 24025G35KT P6SM SKC=

USA.gov is the U.S. government's official web portal to all federal, state and local government web resources and services.